sensor_id;sensor_type;location;lat;lon;timestamp;P1;durP1;ratioP1;P2;durP2;ratioP2
36355;SDS011;22384;54.302;18.596;2023-04-15T00:01:26;19.05;;;12.45;;
36355;SDS011;22384;54.302;18.596;2023-04-15T00:03:52;17.25;;;12.18;;
36355;SDS011;22384;54.302;18.596;2023-04-15T00:06:19;17.20;;;12.02;;
36355;SDS011;22384;54.302;18.596;2023-04-15T00:08:45;17.75;;;11.82;;
36355;SDS011;22384;54.302;18.596;2023-04-15T00:11:12;17.05;;;12.57;;
36355;SDS011;22384;54.302;18.596;2023-04-15T00:13:38;17.88;;;12.57;;
36355;SDS011;22384;54.302;18.596;2023-04-15T00:16:04;19.63;;;12.43;;
36355;SDS011;22384;54.302;18.596;2023-04-15T00:18:32;20.00;;;12.18;;
36355;SDS011;22384;54.302;18.596;2023-04-15T00:20:58;21.33;;;12.15;;
36355;SDS011;22384;54.302;18.596;2023-04-15T00:23:24;24.60;;;12.52;;
36355;SDS011;22384;54.302;18.596;2023-04-15T00:25:50;15.35;;;11.00;;
36355;SDS011;22384;54.302;18.596;2023-04-15T00:28:16;17.52;;;11.43;;
36355;SDS011;22384;54.302;18.596;2023-04-15T00:30:43;20.80;;;11.63;;
36355;SDS011;22384;54.302;18.596;2023-04-15T00:33:09;18.10;;;12.27;;
36355;SDS011;22384;54.302;18.596;2023-04-15T00:35:35;17.80;;;11.48;;
36355;SDS011;22384;54.302;18.596;2023-04-15T00:38:02;16.17;;;11.45;;
36355;SDS011;22384;54.302;18.596;2023-04-15T00:40:28;17.95;;;11.88;;
36355;SDS011;22384;54.302;18.596;2023-04-15T00:42:55;19.58;;;12.85;;
36355;SDS011;22384;54.302;18.596;2023-04-15T00:45:21;20.50;;;12.15;;
36355;SDS011;22384;54.302;18.596;2023-04-15T00:47:48;18.40;;;11.52;;
36355;SDS011;22384;54.302;18.596;2023-04-15T00:50:14;19.52;;;11.57;;
36355;SDS011;22384;54.302;18.596;2023-04-15T00:52:40;19.42;;;11.20;;
36355;SDS011;22384;54.302;18.596;2023-04-15T00:55:06;20.83;;;12.30;;
36355;SDS011;22384;54.302;18.596;2023-04-15T00:57:32;19.45;;;11.80;;
36355;SDS011;22384;54.302;18.596;2023-04-15T00:59:59;20.20;;;12.48;;
36355;SDS011;22384;54.302;18.596;2023-04-15T01:02:26;17.85;;;11.02;;
36355;SDS011;22384;54.302;18.596;2023-04-15T01:04:52;16.98;;;11.88;;
36355;SDS011;22384;54.302;18.596;2023-04-15T01:07:18;20.67;;;11.73;;
36355;SDS011;22384;54.302;18.596;2023-04-15T01:09:44;18.75;;;11.07;;
36355;SDS011;22384;54.302;18.596;2023-04-15T01:12:12;20.30;;;11.55;;
36355;SDS011;22384;54.302;18.596;2023-04-15T01:14:39;17.45;;;11.85;;
36355;SDS011;22384;54.302;18.596;2023-04-15T01:17:05;20.35;;;11.23;;
36355;SDS011;22384;54.302;18.596;2023-04-15T01:19:31;19.20;;;11.90;;
36355;SDS011;22384;54.302;18.596;2023-04-15T01:21:57;19.35;;;11.43;;
36355;SDS011;22384;54.302;18.596;2023-04-15T01:24:24;21.17;;;11.70;;
36355;SDS011;22384;54.302;18.596;2023-04-15T01:26:51;17.05;;;11.45;;
36355;SDS011;22384;54.302;18.596;2023-04-15T01:29:17;18.33;;;12.18;;
36355;SDS011;22384;54.302;18.596;2023-04-15T01:31:50;17.92;;;11.70;;
36355;SDS011;22384;54.302;18.596;2023-04-15T01:34:16;20.48;;;12.10;;
36355;SDS011;22384;54.302;18.596;2023-04-15T01:36:42;18.23;;;12.02;;
36355;SDS011;22384;54.302;18.596;2023-04-15T01:39:08;15.98;;;11.23;;
36355;SDS011;22384;54.302;18.596;2023-04-15T01:41:34;16.60;;;11.65;;
36355;SDS011;22384;54.302;18.596;2023-04-15T01:44:00;22.45;;;11.82;;
36355;SDS011;22384;54.302;18.596;2023-04-15T01:46:26;19.42;;;11.35;;
36355;SDS011;22384;54.302;18.596;2023-04-15T01:48:52;19.40;;;11.25;;
36355;SDS011;22384;54.302;18.596;2023-04-15T01:51:19;16.42;;;10.80;;
36355;SDS011;22384;54.302;18.596;2023-04-15T01:53:45;20.38;;;11.95;;
36355;SDS011;22384;54.302;18.596;2023-04-15T01:56:11;16.67;;;11.43;;
36355;SDS011;22384;54.302;18.596;2023-04-15T01:58:37;18.38;;;10.98;;
36355;SDS011;22384;54.302;18.596;2023-04-15T02:01:04;16.27;;;10.80;;
36355;SDS011;22384;54.302;18.596;2023-04-15T02:03:30;15.15;;;11.13;;
36355;SDS011;22384;54.302;18.596;2023-04-15T02:05:57;17.42;;;11.60;;
36355;SDS011;22384;54.302;18.596;2023-04-15T02:08:23;16.98;;;11.90;;
36355;SDS011;22384;54.302;18.596;2023-04-15T02:10:49;18.88;;;11.88;;
36355;SDS011;22384;54.302;18.596;2023-04-15T02:13:15;17.55;;;12.15;;
36355;SDS011;22384;54.302;18.596;2023-04-15T02:15:45;20.77;;;11.95;;
36355;SDS011;22384;54.302;18.596;2023-04-15T02:18:11;16.63;;;11.82;;
36355;SDS011;22384;54.302;18.596;2023-04-15T02:20:37;19.33;;;12.60;;
36355;SDS011;22384;54.302;18.596;2023-04-15T02:23:03;22.52;;;12.73;;
36355;SDS011;22384;54.302;18.596;2023-04-15T02:25:31;20.23;;;12.43;;
36355;SDS011;22384;54.302;18.596;2023-04-15T02:27:57;21.33;;;12.55;;
36355;SDS011;22384;54.302;18.596;2023-04-15T02:30:23;17.83;;;12.38;;
36355;SDS011;22384;54.302;18.596;2023-04-15T02:32:49;26.15;;;12.38;;
36355;SDS011;22384;54.302;18.596;2023-04-15T02:35:15;19.38;;;12.07;;
36355;SDS011;22384;54.302;18.596;2023-04-15T02:37:43;19.17;;;11.70;;
36355;SDS011;22384;54.302;18.596;2023-04-15T02:40:10;16.17;;;11.18;;
36355;SDS011;22384;54.302;18.596;2023-04-15T02:42:40;21.08;;;12.18;;
36355;SDS011;22384;54.302;18.596;2023-04-15T02:45:07;18.02;;;11.98;;
36355;SDS011;22384;54.302;18.596;2023-04-15T02:47:33;16.83;;;11.75;;
36355;SDS011;22384;54.302;18.596;2023-04-15T02:50:00;16.05;;;11.25;;
36355;SDS011;22384;54.302;18.596;2023-04-15T02:52:26;16.85;;;12.27;;
36355;SDS011;22384;54.302;18.596;2023-04-15T02:54:52;17.15;;;11.07;;
36355;SDS011;22384;54.302;18.596;2023-04-15T02:57:24;18.08;;;11.02;;
36355;SDS011;22384;54.302;18.596;2023-04-15T02:59:50;19.05;;;11.52;;
36355;SDS011;22384;54.302;18.596;2023-04-15T03:02:16;15.30;;;11.48;;
36355;SDS011;22384;54.302;18.596;2023-04-15T03:04:42;20.38;;;12.02;;
36355;SDS011;22384;54.302;18.596;2023-04-15T03:07:08;16.55;;;11.05;;
36355;SDS011;22384;54.302;18.596;2023-04-15T03:09:34;18.98;;;11.85;;
36355;SDS011;22384;54.302;18.596;2023-04-15T03:12:01;18.35;;;11.35;;
36355;SDS011;22384;54.302;18.596;2023-04-15T03:14:27;18.27;;;11.50;;
36355;SDS011;22384;54.302;18.596;2023-04-15T03:16:53;16.63;;;10.85;;
36355;SDS011;22384;54.302;18.596;2023-04-15T03:19:19;15.82;;;11.63;;
36355;SDS011;22384;54.302;18.596;2023-04-15T03:21:45;18.00;;;11.13;;
36355;SDS011;22384;54.302;18.596;2023-04-15T03:24:11;19.92;;;11.63;;
36355;SDS011;22384;54.302;18.596;2023-04-15T03:26:37;19.30;;;10.70;;
36355;SDS011;22384;54.302;18.596;2023-04-15T03:29:03;19.85;;;11.85;;
36355;SDS011;22384;54.302;18.596;2023-04-15T03:31:29;19.13;;;11.25;;
36355;SDS011;22384;54.302;18.596;2023-04-15T03:33:55;17.40;;;11.52;;
36355;SDS011;22384;54.302;18.596;2023-04-15T03:36:21;17.63;;;11.30;;
36355;SDS011;22384;54.302;18.596;2023-04-15T03:38:47;21.15;;;11.55;;
36355;SDS011;22384;54.302;18.596;2023-04-15T03:41:14;16.52;;;10.80;;
36355;SDS011;22384;54.302;18.596;2023-04-15T03:43:40;15.98;;;10.90;;
36355;SDS011;22384;54.302;18.596;2023-04-15T03:46:06;18.92;;;11.68;;
36355;SDS011;22384;54.302;18.596;2023-04-15T03:48:32;17.35;;;11.00;;
36355;SDS011;22384;54.302;18.596;2023-04-15T03:50:58;18.20;;;11.30;;
36355;SDS011;22384;54.302;18.596;2023-04-15T03:53:24;18.83;;;11.48;;
36355;SDS011;22384;54.302;18.596;2023-04-15T03:55:50;19.70;;;11.88;;
36355;SDS011;22384;54.302;18.596;2023-04-15T03:58:16;18.23;;;11.50;;
36355;SDS011;22384;54.302;18.596;2023-04-15T04:00:42;19.70;;;12.07;;
36355;SDS011;22384;54.302;18.596;2023-04-15T04:03:08;22.95;;;11.88;;
36355;SDS011;22384;54.302;18.596;2023-04-15T04:05:35;20.02;;;12.00;;
36355;SDS011;22384;54.302;18.596;2023-04-15T04:08:03;19.38;;;12.10;;
36355;SDS011;22384;54.302;18.596;2023-04-15T04:10:29;17.63;;;11.65;;
36355;SDS011;22384;54.302;18.596;2023-04-15T04:12:55;17.65;;;11.73;;
36355;SDS011;22384;54.302;18.596;2023-04-15T04:15:21;16.08;;;11.05;;
36355;SDS011;22384;54.302;18.596;2023-04-15T04:17:47;18.80;;;11.27;;
36355;SDS011;22384;54.302;18.596;2023-04-15T04:20:13;16.23;;;11.63;;
36355;SDS011;22384;54.302;18.596;2023-04-15T04:22:39;17.52;;;11.68;;
36355;SDS011;22384;54.302;18.596;2023-04-15T04:25:05;22.00;;;12.27;;
36355;SDS011;22384;54.302;18.596;2023-04-15T04:27:32;18.98;;;11.95;;
36355;SDS011;22384;54.302;18.596;2023-04-15T04:29:58;20.23;;;11.52;;
36355;SDS011;22384;54.302;18.596;2023-04-15T04:32:24;19.92;;;11.82;;
36355;SDS011;22384;54.302;18.596;2023-04-15T04:34:51;17.27;;;11.30;;
36355;SDS011;22384;54.302;18.596;2023-04-15T04:37:17;19.50;;;12.20;;
36355;SDS011;22384;54.302;18.596;2023-04-15T04:39:43;22.77;;;12.05;;
36355;SDS011;22384;54.302;18.596;2023-04-15T04:42:08;24.23;;;12.68;;
36355;SDS011;22384;54.302;18.596;2023-04-15T04:44:35;18.73;;;11.63;;
36355;SDS011;22384;54.302;18.596;2023-04-15T04:47:01;18.45;;;11.90;;
36355;SDS011;22384;54.302;18.596;2023-04-15T04:49:27;19.70;;;12.20;;
36355;SDS011;22384;54.302;18.596;2023-04-15T04:51:53;20.10;;;12.90;;
36355;SDS011;22384;54.302;18.596;2023-04-15T04:54:19;17.40;;;12.43;;
36355;SDS011;22384;54.302;18.596;2023-04-15T04:56:45;20.50;;;12.43;;
36355;SDS011;22384;54.302;18.596;2023-04-15T04:59:11;21.48;;;12.45;;
36355;SDS011;22384;54.302;18.596;2023-04-15T05:01:38;21.08;;;12.40;;
36355;SDS011;22384;54.302;18.596;2023-04-15T05:04:04;18.17;;;12.18;;
36355;SDS011;22384;54.302;18.596;2023-04-15T05:06:31;17.88;;;11.95;;
36355;SDS011;22384;54.302;18.596;2023-04-15T05:08:57;19.30;;;12.13;;
36355;SDS011;22384;54.302;18.596;2023-04-15T05:11:23;20.48;;;11.57;;
36355;SDS011;22384;54.302;18.596;2023-04-15T05:13:50;21.23;;;11.95;;
36355;SDS011;22384;54.302;18.596;2023-04-15T05:16:16;17.60;;;11.95;;
36355;SDS011;22384;54.302;18.596;2023-04-15T05:18:42;23.17;;;12.93;;
36355;SDS011;22384;54.302;18.596;2023-04-15T05:21:08;18.20;;;12.05;;
36355;SDS011;22384;54.302;18.596;2023-04-15T05:23:34;18.63;;;12.80;;
36355;SDS011;22384;54.302;18.596;2023-04-15T05:26:00;21.55;;;13.07;;
36355;SDS011;22384;54.302;18.596;2023-04-15T05:28:26;19.45;;;12.32;;
36355;SDS011;22384;54.302;18.596;2023-04-15T05:30:52;18.65;;;12.23;;
36355;SDS011;22384;54.302;18.596;2023-04-15T05:33:18;20.30;;;11.77;;
36355;SDS011;22384;54.302;18.596;2023-04-15T05:35:45;18.60;;;11.73;;
36355;SDS011;22384;54.302;18.596;2023-04-15T05:38:32;19.00;;;11.82;;
36355;SDS011;22384;54.302;18.596;2023-04-15T05:40:58;16.55;;;11.88;;
36355;SDS011;22384;54.302;18.596;2023-04-15T05:43:24;19.60;;;12.75;;
36355;SDS011;22384;54.302;18.596;2023-04-15T05:45:50;21.98;;;12.20;;
36355;SDS011;22384;54.302;18.596;2023-04-15T05:48:17;22.13;;;12.77;;
36355;SDS011;22384;54.302;18.596;2023-04-15T05:50:43;19.25;;;12.65;;
36355;SDS011;22384;54.302;18.596;2023-04-15T05:53:09;19.83;;;12.10;;
36355;SDS011;22384;54.302;18.596;2023-04-15T05:55:35;20.98;;;11.52;;
36355;SDS011;22384;54.302;18.596;2023-04-15T05:58:01;20.17;;;11.82;;
36355;SDS011;22384;54.302;18.596;2023-04-15T06:00:27;21.90;;;11.85;;
36355;SDS011;22384;54.302;18.596;2023-04-15T06:02:54;23.35;;;12.88;;
36355;SDS011;22384;54.302;18.596;2023-04-15T06:05:21;22.60;;;12.15;;
36355;SDS011;22384;54.302;18.596;2023-04-15T06:07:48;18.67;;;12.00;;
36355;SDS011;22384;54.302;18.596;2023-04-15T06:10:14;21.83;;;12.82;;
36355;SDS011;22384;54.302;18.596;2023-04-15T06:12:40;15.75;;;11.73;;
36355;SDS011;22384;54.302;18.596;2023-04-15T06:15:06;19.65;;;11.50;;
36355;SDS011;22384;54.302;18.596;2023-04-15T06:17:34;18.10;;;11.88;;
36355;SDS011;22384;54.302;18.596;2023-04-15T06:20:00;17.75;;;12.25;;
36355;SDS011;22384;54.302;18.596;2023-04-15T06:22:26;19.00;;;11.60;;
36355;SDS011;22384;54.302;18.596;2023-04-15T06:24:52;17.95;;;12.32;;
36355;SDS011;22384;54.302;18.596;2023-04-15T06:27:19;21.20;;;12.55;;
36355;SDS011;22384;54.302;18.596;2023-04-15T06:29:45;22.05;;;11.27;;
36355;SDS011;22384;54.302;18.596;2023-04-15T06:32:11;16.15;;;12.65;;
36355;SDS011;22384;54.302;18.596;2023-04-15T06:34:37;18.02;;;12.70;;
36355;SDS011;22384;54.302;18.596;2023-04-15T06:37:03;17.80;;;11.48;;
36355;SDS011;22384;54.302;18.596;2023-04-15T06:39:29;18.92;;;10.68;;
36355;SDS011;22384;54.302;18.596;2023-04-15T06:41:55;18.38;;;11.40;;
36355;SDS011;22384;54.302;18.596;2023-04-15T06:44:22;18.48;;;11.32;;
36355;SDS011;22384;54.302;18.596;2023-04-15T06:46:48;15.43;;;11.45;;
36355;SDS011;22384;54.302;18.596;2023-04-15T06:49:14;20.17;;;11.50;;
36355;SDS011;22384;54.302;18.596;2023-04-15T06:51:40;18.90;;;11.10;;
36355;SDS011;22384;54.302;18.596;2023-04-15T06:54:07;17.52;;;10.30;;
36355;SDS011;22384;54.302;18.596;2023-04-15T06:56:33;15.48;;;10.57;;
36355;SDS011;22384;54.302;18.596;2023-04-15T06:58:59;19.08;;;11.05;;
36355;SDS011;22384;54.302;18.596;2023-04-15T07:01:26;18.77;;;10.63;;
36355;SDS011;22384;54.302;18.596;2023-04-15T07:03:52;16.60;;;10.95;;
36355;SDS011;22384;54.302;18.596;2023-04-15T07:06:18;16.98;;;10.88;;
36355;SDS011;22384;54.302;18.596;2023-04-15T07:08:44;14.35;;;10.25;;
36355;SDS011;22384;54.302;18.596;2023-04-15T07:11:10;16.88;;;9.90;;
36355;SDS011;22384;54.302;18.596;2023-04-15T07:13:36;22.52;;;13.73;;
36355;SDS011;22384;54.302;18.596;2023-04-15T07:16:02;16.88;;;10.98;;
36355;SDS011;22384;54.302;18.596;2023-04-15T07:18:28;40.88;;;22.33;;
36355;SDS011;22384;54.302;18.596;2023-04-15T07:20:55;23.35;;;12.07;;
36355;SDS011;22384;54.302;18.596;2023-04-15T07:23:21;12.93;;;9.50;;
36355;SDS011;22384;54.302;18.596;2023-04-15T07:25:47;13.73;;;9.15;;
36355;SDS011;22384;54.302;18.596;2023-04-15T07:28:13;14.05;;;8.95;;
36355;SDS011;22384;54.302;18.596;2023-04-15T07:30:40;18.23;;;9.27;;
36355;SDS011;22384;54.302;18.596;2023-04-15T07:33:06;14.68;;;9.30;;
36355;SDS011;22384;54.302;18.596;2023-04-15T07:35:32;16.77;;;9.45;;
36355;SDS011;22384;54.302;18.596;2023-04-15T07:37:58;18.60;;;9.15;;
36355;SDS011;22384;54.302;18.596;2023-04-15T07:40:24;13.68;;;9.25;;
36355;SDS011;22384;54.302;18.596;2023-04-15T07:42:50;15.38;;;9.02;;
36355;SDS011;22384;54.302;18.596;2023-04-15T07:45:16;16.67;;;10.88;;
36355;SDS011;22384;54.302;18.596;2023-04-15T07:47:42;12.80;;;9.20;;
36355;SDS011;22384;54.302;18.596;2023-04-15T07:50:08;14.95;;;9.02;;
36355;SDS011;22384;54.302;18.596;2023-04-15T07:52:35;14.38;;;9.43;;
36355;SDS011;22384;54.302;18.596;2023-04-15T07:55:06;15.63;;;10.85;;
36355;SDS011;22384;54.302;18.596;2023-04-15T07:57:35;17.27;;;9.98;;
36355;SDS011;22384;54.302;18.596;2023-04-15T08:00:02;17.02;;;10.45;;
36355;SDS011;22384;54.302;18.596;2023-04-15T08:02:31;14.77;;;10.18;;
36355;SDS011;22384;54.302;18.596;2023-04-15T08:04:57;24.40;;;11.18;;
36355;SDS011;22384;54.302;18.596;2023-04-15T08:07:24;14.05;;;10.02;;
36355;SDS011;22384;54.302;18.596;2023-04-15T08:09:50;22.30;;;10.20;;
36355;SDS011;22384;54.302;18.596;2023-04-15T08:12:16;17.10;;;10.15;;
36355;SDS011;22384;54.302;18.596;2023-04-15T08:14:42;15.60;;;10.05;;
36355;SDS011;22384;54.302;18.596;2023-04-15T08:17:08;15.15;;;9.75;;
36355;SDS011;22384;54.302;18.596;2023-04-15T08:19:34;17.77;;;10.50;;
36355;SDS011;22384;54.302;18.596;2023-04-15T08:22:00;19.70;;;10.57;;
36355;SDS011;22384;54.302;18.596;2023-04-15T08:24:26;18.50;;;11.20;;
36355;SDS011;22384;54.302;18.596;2023-04-15T08:26:53;16.90;;;9.48;;
36355;SDS011;22384;54.302;18.596;2023-04-15T08:29:19;12.60;;;9.32;;
36355;SDS011;22384;54.302;18.596;2023-04-15T08:31:45;17.80;;;10.25;;
36355;SDS011;22384;54.302;18.596;2023-04-15T08:34:11;14.45;;;9.43;;
36355;SDS011;22384;54.302;18.596;2023-04-15T08:36:37;18.95;;;10.05;;
36355;SDS011;22384;54.302;18.596;2023-04-15T08:39:03;16.13;;;9.30;;
36355;SDS011;22384;54.302;18.596;2023-04-15T08:41:40;13.52;;;8.70;;
36355;SDS011;22384;54.302;18.596;2023-04-15T08:44:10;19.63;;;8.95;;
36355;SDS011;22384;54.302;18.596;2023-04-15T08:46:36;15.02;;;8.25;;
36355;SDS011;22384;54.302;18.596;2023-04-15T08:49:03;13.25;;;8.88;;
36355;SDS011;22384;54.302;18.596;2023-04-15T08:51:30;16.50;;;9.65;;
36355;SDS011;22384;54.302;18.596;2023-04-15T08:53:57;15.60;;;8.77;;
36355;SDS011;22384;54.302;18.596;2023-04-15T08:56:24;15.80;;;9.25;;
36355;SDS011;22384;54.302;18.596;2023-04-15T08:58:51;15.30;;;8.57;;
36355;SDS011;22384;54.302;18.596;2023-04-15T09:01:17;18.95;;;9.95;;
36355;SDS011;22384;54.302;18.596;2023-04-15T09:03:43;16.67;;;7.85;;
36355;SDS011;22384;54.302;18.596;2023-04-15T09:06:10;9.20;;;6.75;;
36355;SDS011;22384;54.302;18.596;2023-04-15T09:08:36;10.52;;;5.88;;
36355;SDS011;22384;54.302;18.596;2023-04-15T09:11:03;8.88;;;6.00;;
36355;SDS011;22384;54.302;18.596;2023-04-15T09:13:29;13.75;;;5.82;;
36355;SDS011;22384;54.302;18.596;2023-04-15T09:15:55;9.80;;;6.65;;
36355;SDS011;22384;54.302;18.596;2023-04-15T09:18:35;8.95;;;6.05;;
36355;SDS011;22384;54.302;18.596;2023-04-15T09:21:05;9.30;;;6.25;;
36355;SDS011;22384;54.302;18.596;2023-04-15T09:23:33;9.35;;;5.95;;
36355;SDS011;22384;54.302;18.596;2023-04-15T09:26:00;9.38;;;7.07;;
36355;SDS011;22384;54.302;18.596;2023-04-15T09:28:26;12.82;;;7.40;;
36355;SDS011;22384;54.302;18.596;2023-04-15T09:30:59;14.07;;;5.90;;
36355;SDS011;22384;54.302;18.596;2023-04-15T09:33:26;11.32;;;6.40;;
36355;SDS011;22384;54.302;18.596;2023-04-15T09:35:59;9.13;;;6.32;;
36355;SDS011;22384;54.302;18.596;2023-04-15T09:38:25;13.02;;;6.68;;
36355;SDS011;22384;54.302;18.596;2023-04-15T09:40:51;9.98;;;5.65;;
36355;SDS011;22384;54.302;18.596;2023-04-15T09:43:17;12.93;;;6.85;;
36355;SDS011;22384;54.302;18.596;2023-04-15T09:45:47;10.60;;;6.25;;
36355;SDS011;22384;54.302;18.596;2023-04-15T09:48:20;9.48;;;6.07;;
36355;SDS011;22384;54.302;18.596;2023-04-15T09:50:47;11.35;;;6.75;;
36355;SDS011;22384;54.302;18.596;2023-04-15T09:53:17;10.15;;;6.30;;
36355;SDS011;22384;54.302;18.596;2023-04-15T09:55:54;11.05;;;6.45;;
36355;SDS011;22384;54.302;18.596;2023-04-15T09:58:21;17.52;;;8.25;;
36355;SDS011;22384;54.302;18.596;2023-04-15T10:00:47;13.98;;;7.80;;
36355;SDS011;22384;54.302;18.596;2023-04-15T10:03:18;11.43;;;6.93;;
36355;SDS011;22384;54.302;18.596;2023-04-15T10:05:46;15.50;;;8.30;;
36355;SDS011;22384;54.302;18.596;2023-04-15T10:08:12;15.93;;;8.93;;
36355;SDS011;22384;54.302;18.596;2023-04-15T10:10:38;11.98;;;8.98;;
36355;SDS011;22384;54.302;18.596;2023-04-15T10:13:05;15.60;;;8.05;;
36355;SDS011;22384;54.302;18.596;2023-04-15T10:15:31;19.05;;;8.98;;
36355;SDS011;22384;54.302;18.596;2023-04-15T10:17:59;17.15;;;9.07;;
36355;SDS011;22384;54.302;18.596;2023-04-15T10:20:26;20.02;;;9.18;;
36355;SDS011;22384;54.302;18.596;2023-04-15T10:22:54;14.93;;;8.68;;
36355;SDS011;22384;54.302;18.596;2023-04-15T10:25:20;14.43;;;8.07;;
36355;SDS011;22384;54.302;18.596;2023-04-15T10:27:46;18.08;;;7.97;;
36355;SDS011;22384;54.302;18.596;2023-04-15T10:30:12;14.63;;;7.78;;
36355;SDS011;22384;54.302;18.596;2023-04-15T10:32:38;12.82;;;7.45;;
36355;SDS011;22384;54.302;18.596;2023-04-15T10:35:05;15.02;;;8.18;;
36355;SDS011;22384;54.302;18.596;2023-04-15T10:37:36;12.73;;;7.45;;
36355;SDS011;22384;54.302;18.596;2023-04-15T10:42:47;15.05;;;7.85;;
36355;SDS011;22384;54.302;18.596;2023-04-15T10:45:16;14.90;;;9.15;;
36355;SDS011;22384;54.302;18.596;2023-04-15T10:47:43;14.68;;;8.57;;
36355;SDS011;22384;54.302;18.596;2023-04-15T10:50:09;13.70;;;8.85;;
36355;SDS011;22384;54.302;18.596;2023-04-15T10:52:36;19.08;;;8.95;;
36355;SDS011;22384;54.302;18.596;2023-04-15T10:55:15;12.63;;;8.00;;
36355;SDS011;22384;54.302;18.596;2023-04-15T10:57:43;22.75;;;8.82;;
36355;SDS011;22384;54.302;18.596;2023-04-15T11:00:13;15.40;;;8.40;;
36355;SDS011;22384;54.302;18.596;2023-04-15T11:05:05;15.30;;;7.65;;
36355;SDS011;22384;54.302;18.596;2023-04-15T11:07:39;15.82;;;7.70;;
36355;SDS011;22384;54.302;18.596;2023-04-15T11:12:45;18.33;;;8.35;;
36355;SDS011;22384;54.302;18.596;2023-04-15T11:15:24;11.57;;;7.43;;
36355;SDS011;22384;54.302;18.596;2023-04-15T11:17:52;12.07;;;7.70;;
36355;SDS011;22384;54.302;18.596;2023-04-15T11:20:18;12.90;;;6.95;;
36355;SDS011;22384;54.302;18.596;2023-04-15T11:22:48;11.82;;;7.15;;
36355;SDS011;22384;54.302;18.596;2023-04-15T11:25:21;14.50;;;7.40;;
36355;SDS011;22384;54.302;18.596;2023-04-15T11:27:48;11.32;;;6.88;;
36355;SDS011;22384;54.302;18.596;2023-04-15T11:30:21;12.85;;;7.03;;
36355;SDS011;22384;54.302;18.596;2023-04-15T11:32:48;12.95;;;8.00;;
36355;SDS011;22384;54.302;18.596;2023-04-15T11:35:17;12.45;;;7.60;;
36355;SDS011;22384;54.302;18.596;2023-04-15T11:37:44;13.35;;;8.23;;
36355;SDS011;22384;54.302;18.596;2023-04-15T11:40:10;12.02;;;7.82;;
36355;SDS011;22384;54.302;18.596;2023-04-15T11:42:37;13.63;;;8.27;;
36355;SDS011;22384;54.302;18.596;2023-04-15T11:45:10;13.65;;;8.10;;
36355;SDS011;22384;54.302;18.596;2023-04-15T11:47:36;13.50;;;7.50;;
36355;SDS011;22384;54.302;18.596;2023-04-15T11:52:59;14.15;;;7.60;;
36355;SDS011;22384;54.302;18.596;2023-04-15T11:55:25;13.90;;;7.75;;
36355;SDS011;22384;54.302;18.596;2023-04-15T12:00:37;11.88;;;6.82;;
36355;SDS011;22384;54.302;18.596;2023-04-15T12:08:23;9.60;;;6.38;;
36355;SDS011;22384;54.302;18.596;2023-04-15T12:10:49;9.80;;;7.03;;
36355;SDS011;22384;54.302;18.596;2023-04-15T12:13:15;10.18;;;7.03;;
36355;SDS011;22384;54.302;18.596;2023-04-15T12:15:41;8.45;;;6.32;;
36355;SDS011;22384;54.302;18.596;2023-04-15T12:18:15;10.50;;;6.75;;
36355;SDS011;22384;54.302;18.596;2023-04-15T12:20:44;10.25;;;7.07;;
36355;SDS011;22384;54.302;18.596;2023-04-15T12:23:10;11.60;;;7.03;;
36355;SDS011;22384;54.302;18.596;2023-04-15T12:25:36;11.90;;;7.05;;
36355;SDS011;22384;54.302;18.596;2023-04-15T12:28:09;17.70;;;7.15;;
36355;SDS011;22384;54.302;18.596;2023-04-15T12:30:35;19.50;;;8.23;;
36355;SDS011;22384;54.302;18.596;2023-04-15T12:33:01;14.35;;;8.10;;
36355;SDS011;22384;54.302;18.596;2023-04-15T12:35:27;12.43;;;7.35;;
36355;SDS011;22384;54.302;18.596;2023-04-15T12:37:53;17.15;;;7.38;;
36355;SDS011;22384;54.302;18.596;2023-04-15T12:40:19;11.80;;;7.72;;
36355;SDS011;22384;54.302;18.596;2023-04-15T12:42:46;9.07;;;7.20;;
36355;SDS011;22384;54.302;18.596;2023-04-15T12:45:12;18.35;;;7.40;;
36355;SDS011;22384;54.302;18.596;2023-04-15T12:47:38;12.27;;;6.75;;
36355;SDS011;22384;54.302;18.596;2023-04-15T12:50:04;11.35;;;7.45;;
36355;SDS011;22384;54.302;18.596;2023-04-15T12:52:31;12.07;;;7.57;;
36355;SDS011;22384;54.302;18.596;2023-04-15T12:54:57;13.45;;;7.60;;
36355;SDS011;22384;54.302;18.596;2023-04-15T12:57:24;10.23;;;7.38;;
36355;SDS011;22384;54.302;18.596;2023-04-15T12:59:50;11.70;;;7.25;;
36355;SDS011;22384;54.302;18.596;2023-04-15T13:02:16;14.10;;;8.50;;
36355;SDS011;22384;54.302;18.596;2023-04-15T13:04:42;11.82;;;7.57;;
36355;SDS011;22384;54.302;18.596;2023-04-15T13:07:08;12.85;;;7.90;;
36355;SDS011;22384;54.302;18.596;2023-04-15T13:09:35;13.07;;;8.13;;
36355;SDS011;22384;54.302;18.596;2023-04-15T13:12:01;10.82;;;7.13;;
36355;SDS011;22384;54.302;18.596;2023-04-15T13:14:29;12.90;;;7.35;;
36355;SDS011;22384;54.302;18.596;2023-04-15T13:16:55;18.67;;;7.65;;
36355;SDS011;22384;54.302;18.596;2023-04-15T13:19:21;13.30;;;7.85;;
36355;SDS011;22384;54.302;18.596;2023-04-15T13:21:47;14.70;;;9.25;;
36355;SDS011;22384;54.302;18.596;2023-04-15T13:24:13;11.63;;;6.78;;
36355;SDS011;22384;54.302;18.596;2023-04-15T13:26:40;11.82;;;6.82;;
36355;SDS011;22384;54.302;18.596;2023-04-15T13:29:06;16.00;;;8.15;;
36355;SDS011;22384;54.302;18.596;2023-04-15T13:31:32;13.65;;;7.45;;
36355;SDS011;22384;54.302;18.596;2023-04-15T13:33:58;19.02;;;8.10;;
36355;SDS011;22384;54.302;18.596;2023-04-15T13:36:24;11.43;;;7.38;;
36355;SDS011;22384;54.302;18.596;2023-04-15T13:38:51;10.85;;;7.68;;
36355;SDS011;22384;54.302;18.596;2023-04-15T13:41:17;12.68;;;7.55;;
36355;SDS011;22384;54.302;18.596;2023-04-15T13:43:45;15.95;;;8.05;;
36355;SDS011;22384;54.302;18.596;2023-04-15T13:46:11;10.10;;;7.03;;
36355;SDS011;22384;54.302;18.596;2023-04-15T13:48:37;11.18;;;7.00;;
36355;SDS011;22384;54.302;18.596;2023-04-15T13:51:03;11.25;;;7.45;;
36355;SDS011;22384;54.302;18.596;2023-04-15T13:53:29;13.70;;;7.68;;
36355;SDS011;22384;54.302;18.596;2023-04-15T13:55:55;14.40;;;9.50;;
36355;SDS011;22384;54.302;18.596;2023-04-15T13:58:21;16.73;;;9.25;;
36355;SDS011;22384;54.302;18.596;2023-04-15T14:00:47;31.10;;;14.10;;
36355;SDS011;22384;54.302;18.596;2023-04-15T14:03:13;13.32;;;7.80;;
36355;SDS011;22384;54.302;18.596;2023-04-15T14:05:39;12.18;;;7.75;;
36355;SDS011;22384;54.302;18.596;2023-04-15T14:08:05;13.98;;;7.32;;
36355;SDS011;22384;54.302;18.596;2023-04-15T14:10:31;12.60;;;7.70;;
36355;SDS011;22384;54.302;18.596;2023-04-15T14:12:57;10.23;;;6.97;;
36355;SDS011;22384;54.302;18.596;2023-04-15T14:15:23;11.95;;;7.97;;
36355;SDS011;22384;54.302;18.596;2023-04-15T14:17:49;11.40;;;7.15;;
36355;SDS011;22384;54.302;18.596;2023-04-15T14:20:15;14.57;;;7.60;;
36355;SDS011;22384;54.302;18.596;2023-04-15T14:22:41;12.68;;;6.90;;
36355;SDS011;22384;54.302;18.596;2023-04-15T14:25:07;12.73;;;7.32;;
36355;SDS011;22384;54.302;18.596;2023-04-15T14:27:33;11.98;;;6.82;;
36355;SDS011;22384;54.302;18.596;2023-04-15T14:29:59;12.75;;;7.22;;
36355;SDS011;22384;54.302;18.596;2023-04-15T14:32:25;13.90;;;8.60;;